Time;durP1;ratioP1;P1;durP2;ratioP2;P2;SDS_P1;SDS_P2;PMS_P1;PMS_P2;Temp;Humidity;BMP_temperature;BMP_pressure;BME280_temperature;BME280_humidity;BME280_pressure;Samples;Min_cycle;Max_cycle;Signal;HPM_P1;HPM_P2
2021/01/09 00:00:33;;;;;;;11.13;9.83;;;0.60;99.60;;;;;;5081417;28;20281;-73
2021/01/09 00:02:59;;;;;;;14.30;9.60;;;0.60;99.80;;;;;;5080309;28;20664;-72
2021/01/09 00:05:25;;;;;;;10.90;9.73;;;0.60;99.50;;;;;;5078126;28;20198;-72
2021/01/09 00:07:50;;;;;;;11.17;9.03;;;0.60;99.40;;;;;;5083041;28;20181;-73
2021/01/09 00:10:16;;;;;;;12.17;9.87;;;0.60;99.40;;;;;;5076486;28;20214;-73
2021/01/09 00:12:42;;;;;;;13.33;8.83;;;0.60;99.50;;;;;;5084331;28;20692;-71
2021/01/09 00:15:10;;;;;;;11.07;8.47;;;0.50;99.60;;;;;;5072911;28;20204;-71
2021/01/09 00:17:37;;;;;;;13.47;10.60;;;0.50;99.60;;;;;;5079426;28;20263;-71
2021/01/09 00:20:09;;;;;;;12.60;10.03;;;0.50;99.60;;;;;;5083598;28;20270;-72
2021/01/09 00:22:34;;;;;;;10.83;9.03;;;0.50;99.60;;;;;;5084378;28;20185;-73
2021/01/09 00:25:01;;;;;;;10.77;8.87;;;0.50;99.60;;;;;;5072886;28;20582;-73
2021/01/09 00:27:26;;;;;;;11.23;9.67;;;0.50;99.60;;;;;;5083899;28;20202;-72
2021/01/09 00:29:52;;;;;;;11.80;9.53;;;0.50;99.80;;;;;;5084739;28;20882;-72
2021/01/09 00:32:17;;;;;;;11.90;9.80;;;0.50;99.90;;;;;;5083487;28;20190;-72
2021/01/09 00:34:43;;;;;;;12.60;10.07;;;0.60;99.90;;;;;;5079230;28;20217;-74
2021/01/09 00:37:08;;;;;;;11.90;9.80;;;0.60;99.80;;;;;;5078663;28;20201;-72
2021/01/09 00:39:34;;;;;;;13.00;10.23;;;0.60;99.90;;;;;;5079371;28;20219;-71
2021/01/09 00:42:01;;;;;;;11.40;10.00;;;0.60;99.80;;;;;;5081559;28;20228;-71
2021/01/09 00:44:27;;;;;;;10.73;9.53;;;0.60;99.70;;;;;;5089608;28;20558;-71
2021/01/09 00:46:58;;;;;;;11.70;9.60;;;0.70;99.70;;;;;;5076511;28;20892;-71
2021/01/09 00:49:24;;;;;;;11.53;10.10;;;0.60;99.50;;;;;;5080636;28;20174;-73
2021/01/09 00:51:49;;;;;;;12.00;9.93;;;0.60;99.60;;;;;;5081033;28;20182;-72
2021/01/09 00:54:15;;;;;;;10.80;9.47;;;0.60;99.70;;;;;;5079858;28;20844;-72
2021/01/09 00:56:41;;;;;;;11.50;9.57;;;0.60;99.70;;;;;;5072595;28;20763;-72
2021/01/09 00:59:07;;;;;;;10.47;9.23;;;0.60;99.60;;;;;;5081984;28;20189;-72
2021/01/09 01:01:33;;;;;;;12.53;9.70;;;0.60;99.60;;;;;;5083666;28;20180;-72
2021/01/09 01:03:59;;;;;;;11.77;9.23;;;0.60;99.70;;;;;;5078701;28;20656;-72
2021/01/09 01:06:25;;;;;;;11.87;9.13;;;0.60;99.80;;;;;;5082376;28;20209;-72
2021/01/09 01:08:51;;;;;;;12.27;9.70;;;0.60;99.90;;;;;;5078361;28;20190;-73
2021/01/09 01:11:43;;;;;;;9.87;8.87;;;0.60;99.60;;;;;;5078848;28;20698;-72
2021/01/09 01:14:09;;;;;;;10.80;9.07;;;0.60;99.50;;;;;;5068467;28;20193;-73
2021/01/09 01:16:35;;;;;;;10.87;9.17;;;0.60;99.50;;;;;;5078583;28;20203;-72
2021/01/09 01:19:01;;;;;;;12.63;9.43;;;0.60;99.50;;;;;;5078402;28;20185;-72
2021/01/09 01:21:26;;;;;;;11.73;9.80;;;0.60;99.40;;;;;;5081845;28;20195;-72
2021/01/09 01:23:52;;;;;;;10.67;9.23;;;0.60;99.80;;;;;;5083439;28;20586;-72
2021/01/09 01:26:17;;;;;;;10.87;9.27;;;0.70;99.90;;;;;;5077210;28;20211;-72
2021/01/09 01:28:43;;;;;;;12.13;9.30;;;0.70;99.90;;;;;;5077456;28;20182;-72
2021/01/09 01:31:09;;;;;;;12.93;9.63;;;0.70;99.90;;;;;;5078870;28;20215;-73
2021/01/09 01:33:39;;;;;;;11.67;10.20;;;0.70;99.40;;;;;;5083699;28;20178;-72
2021/01/09 01:36:07;;;;;;;11.57;9.30;;;0.80;98.90;;;;;;5076482;28;20206;-72
2021/01/09 01:38:32;;;;;;;10.97;9.57;;;0.80;99.10;;;;;;5075067;28;20258;-72
2021/01/09 01:41:06;;;;;;;11.83;9.97;;;0.80;99.40;;;;;;5073490;28;20291;-72
2021/01/09 01:43:33;;;;;;;13.20;10.00;;;0.80;99.20;;;;;;5075775;28;20188;-72
2021/01/09 01:46:01;;;;;;;10.73;9.47;;;0.90;99.50;;;;;;5079001;28;20271;-72
2021/01/09 01:48:27;;;;;;;12.83;10.13;;;0.90;99.60;;;;;;5074842;28;20192;-72
2021/01/09 01:50:54;;;;;;;11.87;10.60;;;0.90;99.60;;;;;;5079576;28;20209;-71
2021/01/09 01:53:19;;;;;;;11.10;9.67;;;0.90;99.90;;;;;;5075630;28;20209;-72
2021/01/09 01:55:45;;;;;;;11.67;9.20;;;1.00;99.70;;;;;;5080887;28;20220;-72
2021/01/09 01:58:11;;;;;;;11.90;9.53;;;1.00;98.80;;;;;;5076747;28;20181;-72
2021/01/09 02:00:45;;;;;;;10.97;9.90;;;0.90;98.60;;;;;;5072598;28;20213;-72
2021/01/09 02:03:10;;;;;;;10.80;9.60;;;0.90;98.60;;;;;;5078408;28;20614;-72
2021/01/09 02:05:41;;;;;;;11.23;9.53;;;0.90;98.80;;;;;;5087085;28;20380;-72
2021/01/09 02:08:10;;;;;;;13.20;10.53;;;0.90;98.70;;;;;;5079921;28;20247;-72
2021/01/09 02:10:36;;;;;;;12.77;9.93;;;0.80;98.70;;;;;;5075522;28;20251;-72
2021/01/09 02:13:07;;;;;;;13.20;9.87;;;0.90;99.00;;;;;;5081148;28;20213;-72
2021/01/09 02:15:33;;;;;;;13.50;10.57;;;0.80;99.00;;;;;;5080138;28;20596;-72
2021/01/09 02:18:00;;;;;;;12.27;10.57;;;0.80;98.70;;;;;;5075377;28;20179;-72
2021/01/09 02:20:28;;;;;;;12.47;10.63;;;0.90;98.60;;;;;;5084141;28;20762;-72
2021/01/09 02:22:55;;;;;;;13.73;11.00;;;0.90;98.90;;;;;;5076329;28;20269;-72
2021/01/09 02:25:21;;;;;;;14.20;11.10;;;0.80;99.30;;;;;;5070085;28;20201;-73
2021/01/09 02:27:47;;;;;;;12.20;10.90;;;0.80;99.40;;;;;;5080828;28;20254;-72
2021/01/09 02:30:15;;;;;;;12.80;10.93;;;0.90;99.30;;;;;;5078778;28;20214;-73
2021/01/09 02:32:51;;;;;;;12.37;11.07;;;0.90;99.50;;;;;;5082279;28;20178;-71
2021/01/09 02:35:20;;;;;;;11.90;10.17;;;0.90;99.50;;;;;;5080313;28;20212;-72
2021/01/09 02:37:46;;;;;;;11.27;10.10;;;0.90;99.50;;;;;;5074114;28;20252;-71
2021/01/09 02:40:16;;;;;;;11.23;9.87;;;0.90;99.30;;;;;;5081480;28;20660;-71
2021/01/09 02:42:42;;;;;;;12.20;10.00;;;0.90;99.30;;;;;;5083231;28;20186;-72
2021/01/09 02:45:08;;;;;;;12.13;10.03;;;0.90;99.10;;;;;;5081245;28;20259;-71
2021/01/09 02:47:34;;;;;;;13.80;11.17;;;1.00;99.60;;;;;;5078992;28;20640;-71
2021/01/09 02:50:00;;;;;;;12.27;10.73;;;1.00;99.50;;;;;;5075405;28;20207;-72
2021/01/09 02:52:26;;;;;;;12.70;11.20;;;1.00;99.30;;;;;;5083716;28;20708;-72
2021/01/09 02:54:51;;;;;;;14.73;10.57;;;1.00;99.60;;;;;;5077533;28;20580;-72
2021/01/09 02:57:17;;;;;;;12.43;10.70;;;1.00;98.80;;;;;;5076905;28;20196;-73
2021/01/09 02:59:42;;;;;;;13.20;11.03;;;1.00;98.70;;;;;;5079439;28;20614;-72
2021/01/09 03:02:08;;;;;;;11.83;10.50;;;1.00;98.70;;;;;;5086875;28;20655;-70
2021/01/09 03:04:34;;;;;;;14.90;11.47;;;0.90;98.60;;;;;;5081626;28;20190;-73
2021/01/09 03:06:59;;;;;;;14.03;10.70;;;0.90;99.10;;;;;;5071938;28;20256;-72
2021/01/09 03:09:26;;;;;;;14.13;10.57;;;0.80;99.50;;;;;;5082165;28;20657;-72
2021/01/09 03:11:52;;;;;;;12.93;10.40;;;0.80;99.50;;;;;;5084347;28;20198;-71
2021/01/09 03:14:18;;;;;;;13.70;10.97;;;0.80;99.40;;;;;;5075326;28;20291;-73
2021/01/09 03:16:43;;;;;;;13.80;10.90;;;0.80;99.60;;;;;;5083142;28;20223;-73
2021/01/09 03:19:09;;;;;;;12.53;11.07;;;0.80;99.10;;;;;;5075531;28;20222;-73
2021/01/09 03:21:34;;;;;;;14.07;11.67;;;0.70;99.30;;;;;;5080133;28;20244;-71
2021/01/09 03:24:01;;;;;;;12.97;11.57;;;0.70;99.10;;;;;;5074220;28;20209;-71
2021/01/09 03:26:26;;;;;;;12.37;11.17;;;0.70;99.30;;;;;;5102600;28;20258;-73
2021/01/09 03:28:54;;;;;;;14.07;11.27;;;0.80;99.50;;;;;;5100788;28;20194;-73
2021/01/09 03:31:20;;;;;;;12.83;10.97;;;0.80;99.60;;;;;;5106147;28;20220;-72
2021/01/09 03:33:45;;;;;;;14.20;11.07;;;0.80;99.50;;;;;;5079455;28;20233;-72
2021/01/09 03:36:11;;;;;;;13.10;11.73;;;0.80;99.40;;;;;;5085038;28;20277;-73
2021/01/09 03:38:37;;;;;;;15.77;12.50;;;0.80;99.50;;;;;;5076115;28;20179;-72
2021/01/09 03:41:03;;;;;;;14.47;11.67;;;0.80;99.40;;;;;;5081834;28;20187;-72
2021/01/09 03:43:28;;;;;;;15.23;11.13;;;0.80;99.30;;;;;;5080954;28;20180;-72
2021/01/09 03:45:54;;;;;;;16.70;12.13;;;0.90;99.10;;;;;;5088254;28;20248;-71
2021/01/09 03:48:19;;;;;;;15.13;12.20;;;0.80;99.20;;;;;;5078675;28;20183;-72
2021/01/09 03:50:45;;;;;;;14.47;11.57;;;0.80;99.40;;;;;;5081013;28;20616;-72
2021/01/09 03:53:11;;;;;;;13.73;12.30;;;0.80;99.60;;;;;;5087698;28;20213;-72
2021/01/09 03:55:37;;;;;;;14.30;11.20;;;0.80;99.80;;;;;;5078586;28;20252;-71
2021/01/09 03:58:02;;;;;;;14.30;12.53;;;0.80;99.60;;;;;;5086499;28;20555;-72
2021/01/09 04:00:28;;;;;;;14.70;12.43;;;0.80;99.80;;;;;;5092984;28;20183;-73
2021/01/09 04:02:53;;;;;;;15.10;12.00;;;0.80;99.90;;;;;;5096643;28;20179;-72
2021/01/09 04:05:24;;;;;;;13.17;11.57;;;0.80;99.90;;;;;;5090018;28;20682;-72
2021/01/09 04:07:50;;;;;;;13.10;11.40;;;0.80;99.90;;;;;;5095187;28;20201;-72
2021/01/09 04:10:15;;;;;;;14.13;11.93;;;0.80;99.70;;;;;;5100981;28;20250;-72
2021/01/09 04:12:41;;;;;;;16.47;13.37;;;0.80;99.90;;;;;;5100399;28;20224;-72
2021/01/09 04:15:07;;;;;;;15.73;12.90;;;0.80;99.90;;;;;;5081342;28;20195;-72
2021/01/09 04:17:33;;;;;;;16.10;13.23;;;0.80;99.90;;;;;;5090680;28;20246;-72
2021/01/09 04:19:59;;;;;;;17.43;13.33;;;0.80;99.90;;;;;;5088300;28;20187;-72
2021/01/09 04:22:25;;;;;;;15.23;12.80;;;0.80;99.90;;;;;;5096794;28;20205;-72
2021/01/09 04:24:50;;;;;;;15.80;14.10;;;0.80;99.90;;;;;;5085552;28;20182;-72
2021/01/09 04:27:16;;;;;;;16.20;13.30;;;0.90;99.90;;;;;;5089287;28;20196;-72
2021/01/09 04:29:42;;;;;;;13.60;12.20;;;0.90;99.90;;;;;;5084948;28;20190;-72
2021/01/09 04:32:14;;;;;;;15.37;12.80;;;0.90;99.90;;;;;;5086916;28;20262;-72
2021/01/09 04:34:40;;;;;;;16.47;13.37;;;1.00;99.90;;;;;;5089427;28;20196;-71
2021/01/09 04:37:06;;;;;;;16.67;13.00;;;1.00;99.90;;;;;;5092432;28;20292;-73
2021/01/09 04:39:32;;;;;;;16.17;12.20;;;1.00;99.90;;;;;;5088054;28;20233;-70
2021/01/09 04:41:57;;;;;;;14.57;12.97;;;0.90;99.90;;;;;;5086280;28;20243;-71
2021/01/09 04:44:23;;;;;;;15.30;13.57;;;0.90;99.90;;;;;;5078631;28;20468;-72
2021/01/09 04:46:53;;;;;;;14.80;12.20;;;0.90;99.90;;;;;;5082504;28;20234;-71
2021/01/09 04:49:20;;;;;;;13.43;11.50;;;0.80;99.90;;;;;;5080270;28;20179;-71
2021/01/09 04:51:47;;;;;;;15.03;11.90;;;0.80;99.90;;;;;;5078899;28;20267;-71
2021/01/09 04:54:18;;;;;;;13.40;11.43;;;0.80;99.90;;;;;;5080378;28;20187;-70
2021/01/09 04:56:49;;;;;;;15.80;11.77;;;0.70;99.90;;;;;;5081938;28;20201;-71
2021/01/09 04:59:16;;;;;;;13.83;10.87;;;0.70;99.90;;;;;;5087259;28;20188;-72
2021/01/09 05:01:43;;;;;;;14.00;11.57;;;0.70;99.90;;;;;;5082166;28;20188;-71
2021/01/09 05:04:10;;;;;;;14.07;10.83;;;0.70;99.90;;;;;;5080736;28;20209;-71
2021/01/09 05:06:40;;;;;;;12.53;10.90;;;0.70;99.90;;;;;;5076582;28;20206;-71
2021/01/09 05:09:06;;;;;;;13.77;11.30;;;0.70;99.90;;;;;;5079454;28;20266;-71
2021/01/09 05:11:34;;;;;;;12.60;11.03;;;0.70;99.90;;;;;;5075685;28;20218;-71
2021/01/09 05:14:04;;;;;;;12.40;10.83;;;0.70;99.90;;;;;;5082010;28;20179;-71
2021/01/09 05:16:30;;;;;;;13.37;11.20;;;0.70;99.90;;;;;;5077777;28;20657;-72
2021/01/09 05:18:55;;;;;;;14.50;12.30;;;0.70;99.90;;;;;;5078562;28;20194;-72
2021/01/09 05:21:22;;;;;;;19.07;17.07;;;0.70;99.90;;;;;;5082880;28;20210;-72
2021/01/09 05:24:02;;;;;;;20.63;16.50;;;0.70;99.90;;;;;;5079693;28;20215;-71
2021/01/09 05:26:28;;;;;;;16.70;14.37;;;0.60;99.90;;;;;;5082746;28;20201;-71
2021/01/09 05:28:56;;;;;;;15.17;12.20;;;0.60;99.90;;;;;;5075263;28;20260;-72
2021/01/09 05:31:23;;;;;;;16.67;12.40;;;0.60;99.90;;;;;;5075135;28;20684;-71
2021/01/09 05:33:50;;;;;;;17.70;14.07;;;0.60;99.90;;;;;;5075578;28;20208;-72
2021/01/09 05:36:16;;;;;;;16.37;14.63;;;0.60;99.90;;;;;;5086312;28;20194;-71
2021/01/09 05:38:44;;;;;;;17.00;12.73;;;0.60;99.90;;;;;;5082808;28;20653;-71
2021/01/09 05:41:12;;;;;;;18.93;15.23;;;0.60;99.90;;;;;;5080954;28;20185;-73
2021/01/09 05:43:38;;;;;;;18.37;15.83;;;0.60;99.90;;;;;;5074339;28;20189;-72
2021/01/09 05:46:05;;;;;;;17.90;14.43;;;0.60;99.90;;;;;;5075711;28;20203;-74
2021/01/09 05:48:32;;;;;;;17.20;14.73;;;0.60;99.90;;;;;;5084024;28;20546;-72
2021/01/09 05:51:02;;;;;;;18.33;15.47;;;0.60;99.90;;;;;;5088465;28;20301;-71
2021/01/09 05:53:39;;;;;;;17.53;14.93;;;0.60;99.90;;;;;;5083218;28;20182;-73
2021/01/09 05:56:05;;;;;;;19.27;15.50;;;0.60;99.90;;;;;;5075909;28;20611;-71
2021/01/09 05:58:31;;;;;;;22.47;16.87;;;0.70;99.90;;;;;;5070057;28;20185;-71
2021/01/09 06:01:01;;;;;;;17.00;15.17;;;0.70;99.90;;;;;;5078851;28;20246;-73
2021/01/09 06:03:41;;;;;;;17.40;14.50;;;0.70;99.90;;;;;;5077082;28;20197;-72
2021/01/09 06:06:25;;;;;;;20.20;15.23;;;0.70;99.90;;;;;;5078091;28;20202;-70
2021/01/09 06:09:04;;;;;;;19.83;15.00;;;0.70;99.90;;;;;;5077535;28;20179;-72
2021/01/09 06:11:39;;;;;;;18.43;14.37;;;0.80;99.90;;;;;;5082670;28;20226;-72
2021/01/09 06:14:13;;;;;;;17.20;14.00;;;0.80;99.90;;;;;;5084915;28;20183;-71
2021/01/09 06:16:41;;;;;;;17.77;14.67;;;0.80;99.90;;;;;;5091778;28;20200;-72
2021/01/09 06:19:08;;;;;;;18.93;14.87;;;0.80;99.90;;;;;;5085396;28;20175;-73
2021/01/09 06:21:34;;;;;;;19.57;16.00;;;0.80;99.90;;;;;;5090366;28;20191;-72
2021/01/09 06:24:03;;;;;;;20.60;16.03;;;0.80;99.90;;;;;;5086776;28;20187;-72
2021/01/09 06:26:30;;;;;;;22.57;16.23;;;0.80;99.90;;;;;;5089761;28;20204;-73
2021/01/09 06:29:19;;;;;;;17.27;14.63;;;0.80;99.90;;;;;;5084218;28;20193;-72
2021/01/09 06:32:06;;;;;;;16.73;14.67;;;0.80;99.90;;;;;;5083753;28;20572;-71
2021/01/09 06:34:32;;;;;;;18.77;15.63;;;0.80;99.90;;;;;;5085047;28;20184;-71
2021/01/09 06:37:03;;;;;;;18.53;14.57;;;0.90;99.90;;;;;;5083960;28;20278;-71
2021/01/09 06:39:38;;;;;;;16.53;14.73;;;0.90;99.90;;;;;;5085250;28;20174;-70
2021/01/09 06:42:06;;;;;;;17.77;14.93;;;0.90;99.90;;;;;;5082857;28;20190;-71
2021/01/09 06:44:32;;;;;;;21.57;16.27;;;0.90;99.90;;;;;;5088074;28;20170;-71
2021/01/09 06:46:58;;;;;;;18.17;14.97;;;0.90;99.90;;;;;;5079735;28;20205;-70
2021/01/09 06:49:28;;;;;;;20.37;15.67;;;0.90;99.90;;;;;;5086254;28;20182;-72
2021/01/09 06:52:06;;;;;;;18.47;15.00;;;0.80;99.90;;;;;;5087739;28;20267;-71
2021/01/09 06:54:37;;;;;;;18.70;14.80;;;0.80;99.90;;;;;;5087943;28;20693;-71
2021/01/09 06:57:03;;;;;;;19.43;14.97;;;0.90;99.90;;;;;;5087001;28;20200;-72
2021/01/09 06:59:28;;;;;;;18.90;15.73;;;0.80;99.90;;;;;;5085456;28;20197;-71
2021/01/09 07:02:08;;;;;;;16.77;14.87;;;0.80;99.90;;;;;;5085045;28;20185;-71
2021/01/09 07:04:50;;;;;;;18.80;15.43;;;0.80;99.90;;;;;;5087029;28;20182;-71
2021/01/09 07:07:26;;;;;;;20.70;15.97;;;0.80;99.90;;;;;;5093412;28;20186;-73
2021/01/09 07:09:52;;;;;;;19.50;16.00;;;0.80;99.90;;;;;;5087529;28;20182;-72
2021/01/09 07:12:18;;;;;;;18.73;14.83;;;0.90;99.90;;;;;;5094890;28;20205;-72
2021/01/09 07:14:44;;;;;;;18.20;15.00;;;0.90;99.90;;;;;;5084780;28;20194;-71
2021/01/09 07:17:15;;;;;;;17.83;14.87;;;0.90;99.90;;;;;;5083825;28;20203;-73
2021/01/09 07:19:42;;;;;;;18.63;14.97;;;0.90;99.90;;;;;;5084071;28;20254;-72
2021/01/09 07:22:09;;;;;;;19.30;15.33;;;0.90;99.90;;;;;;5081241;28;20194;-72
2021/01/09 07:24:39;;;;;;;17.40;15.10;;;0.90;99.90;;;;;;5078917;28;20183;-72
2021/01/09 07:27:10;;;;;;;16.43;14.10;;;0.90;99.90;;;;;;5086607;28;20233;-73
2021/01/09 07:29:43;;;;;;;17.27;14.67;;;0.90;99.90;;;;;;5076510;28;20198;-71
2021/01/09 07:32:09;;;;;;;18.73;15.30;;;0.90;99.90;;;;;;5085289;28;20245;-72
2021/01/09 07:34:36;;;;;;;17.83;15.67;;;0.90;99.90;;;;;;5083990;28;20190;-71
2021/01/09 07:37:02;;;;;;;18.93;15.73;;;0.90;99.90;;;;;;5077739;28;20200;-73
2021/01/09 07:39:28;;;;;;;19.77;15.33;;;0.90;99.90;;;;;;5079185;28;20179;-74
2021/01/09 07:41:55;;;;;;;22.23;18.23;;;1.00;99.90;;;;;;5078826;28;20236;-71
2021/01/09 07:44:23;;;;;;;22.13;18.70;;;1.00;99.90;;;;;;5083452;28;20706;-71
2021/01/09 07:46:53;;;;;;;22.63;19.27;;;1.10;99.90;;;;;;5078506;28;20300;-72
2021/01/09 07:49:30;;;;;;;27.47;20.83;;;1.10;99.90;;;;;;5081858;28;20252;-69
2021/01/09 07:52:02;;;;;;;27.90;20.90;;;1.20;99.90;;;;;;5098948;28;20193;-71
2021/01/09 07:54:43;;;;;;;24.63;19.47;;;1.20;99.90;;;;;;5094949;28;20181;-74
2021/01/09 07:57:17;;;;;;;24.23;20.27;;;1.20;99.90;;;;;;5092452;28;20199;-72
2021/01/09 08:00:04;;;;;;;26.40;22.03;;;1.30;99.90;;;;;;5084707;28;20533;-71
2021/01/09 08:02:37;;;;;;;27.10;20.50;;;1.30;99.90;;;;;;5079289;28;20195;-72
2021/01/09 08:05:13;;;;;;;29.60;25.70;;;1.30;99.90;;;;;;5081190;28;20181;-74
2021/01/09 08:07:42;;;;;;;30.90;24.63;;;1.30;99.90;;;;;;5084298;28;20267;-72
2021/01/09 08:10:25;;;;;;;29.77;25.17;;;1.30;99.90;;;;;;5081129;28;22776;-72
2021/01/09 08:12:59;;;;;;;39.60;29.83;;;1.30;99.90;;;;;;5084378;28;20185;-72
2021/01/09 08:15:26;;;;;;;45.90;40.57;;;1.40;99.90;;;;;;5078038;28;20611;-72
2021/01/09 08:17:53;;;;;;;30.27;26.60;;;1.40;99.90;;;;;;5072831;28;20203;-73
2021/01/09 08:20:19;;;;;;;30.33;27.03;;;1.40;99.90;;;;;;5089681;28;20730;-73
2021/01/09 08:22:57;;;;;;;28.27;23.33;;;1.40;99.90;;;;;;5079426;28;20188;-74
2021/01/09 08:25:25;;;;;;;23.43;19.83;;;1.40;99.90;;;;;;5078996;28;20227;-72
2021/01/09 08:27:56;;;;;;;23.37;19.30;;;1.40;99.90;;;;;;5074995;28;20176;-75
2021/01/09 08:30:24;;;;;;;21.20;18.90;;;1.40;99.90;;;;;;5072413;28;20199;-72
2021/01/09 08:32:59;;;;;;;23.63;18.90;;;1.40;99.90;;;;;;5080983;28;20170;-72
2021/01/09 08:35:25;;;;;;;23.13;18.93;;;1.40;99.90;;;;;;5074878;28;20204;-74
2021/01/09 08:37:52;;;;;;;22.37;17.67;;;1.50;99.90;;;;;;5075933;28;20253;-73
2021/01/09 08:40:19;;;;;;;23.83;19.73;;;1.40;99.90;;;;;;5079211;28;20214;-73
2021/01/09 08:42:51;;;;;;;20.63;18.43;;;1.40;99.90;;;;;;5078156;28;20203;-71
2021/01/09 08:45:17;;;;;;;22.53;18.97;;;1.50;99.90;;;;;;5079103;28;20251;-72
2021/01/09 08:47:44;;;;;;;24.73;20.57;;;1.50;99.90;;;;;;5081317;28;20181;-72
2021/01/09 08:50:12;;;;;;;29.30;21.77;;;1.60;99.90;;;;;;5076586;28;20208;-72
2021/01/09 08:52:44;;;;;;;28.27;23.33;;;1.60;99.90;;;;;;5081914;28;20188;-72
2021/01/09 08:55:14;;;;;;;27.20;23.70;;;1.70;99.90;;;;;;5076641;28;20583;-74
2021/01/09 08:57:40;;;;;;;24.70;21.17;;;1.70;99.90;;;;;;5078676;28;20180;-74
2021/01/09 09:00:06;;;;;;;26.13;22.47;;;1.80;99.90;;;;;;5076714;28;20689;-74
2021/01/09 09:02:34;;;;;;;30.60;22.00;;;1.80;99.90;;;;;;5079129;28;20665;-74
2021/01/09 09:05:03;;;;;;;26.13;21.37;;;1.90;99.90;;;;;;5076624;28;20187;-73
2021/01/09 09:07:35;;;;;;;24.97;22.23;;;1.90;99.90;;;;;;5076777;28;20179;-74
2021/01/09 09:10:02;;;;;;;25.17;21.27;;;2.00;99.90;;;;;;5081132;28;20181;-72
2021/01/09 09:12:28;;;;;;;27.67;21.57;;;2.10;99.90;;;;;;5078536;28;20189;-74
2021/01/09 09:14:56;;;;;;;26.27;22.73;;;2.10;99.90;;;;;;5083616;28;20608;-73
2021/01/09 09:17:21;;;;;;;28.63;24.50;;;2.10;99.90;;;;;;5076183;28;20193;-72
2021/01/09 09:19:47;;;;;;;29.53;23.60;;;2.20;99.90;;;;;;5083734;28;20179;-72
2021/01/09 09:22:12;;;;;;;32.30;24.97;;;2.30;99.90;;;;;;5079565;28;20686;-73
2021/01/09 09:24:42;;;;;;;28.63;23.53;;;2.40;99.90;;;;;;5073149;28;20621;-72
2021/01/09 09:27:29;;;;;;;28.20;24.00;;;2.40;99.60;;;;;;5081663;28;20766;-73
2021/01/09 09:30:13;;;;;;;31.13;23.90;;;2.50;99.20;;;;;;5080099;28;20179;-73
2021/01/09 09:32:44;;;;;;;28.37;23.50;;;2.60;98.90;;;;;;5079944;28;20188;-74
2021/01/09 09:35:26;;;;;;;29.93;24.43;;;2.60;99.00;;;;;;5075392;28;20751;-73
2021/01/09 09:37:59;;;;;;;28.63;22.63;;;2.70;99.00;;;;;;5077822;28;20559;-76
2021/01/09 09:40:33;;;;;;;31.50;25.33;;;2.80;98.70;;;;;;5079304;28;20646;-73
2021/01/09 09:43:16;;;;;;;34.10;24.50;;;2.90;98.40;;;;;;5080514;28;20184;-74
2021/01/09 09:45:55;;;;;;;35.13;26.13;;;3.10;97.70;;;;;;5087716;28;20256;-74
2021/01/09 09:48:34;;;;;;;31.40;25.40;;;3.30;97.90;;;;;;5078831;28;20174;-72
2021/01/09 09:51:06;;;;;;;32.10;24.63;;;3.30;97.30;;;;;;5079916;28;20206;-73
2021/01/09 09:53:35;;;;;;;31.43;24.00;;;3.30;97.20;;;;;;5083640;28;20178;-74
2021/01/09 09:56:13;;;;;;;29.40;23.30;;;3.40;97.10;;;;;;5081299;28;20568;-74
2021/01/09 09:58:39;;;;;;;30.80;24.40;;;3.40;97.20;;;;;;5078354;28;20221;-74
2021/01/09 10:01:22;;;;;;;29.63;22.37;;;3.50;96.50;;;;;;5083541;28;20676;-72
2021/01/09 10:03:50;;;;;;;31.10;24.47;;;3.60;96.30;;;;;;5082894;28;20677;-73
2021/01/09 10:06:19;;;;;;;31.57;25.40;;;3.70;96.40;;;;;;5077886;28;20579;-73
2021/01/09 10:08:45;;;;;;;32.20;25.40;;;3.70;95.70;;;;;;5082221;28;20192;-73
2021/01/09 10:11:11;;;;;;;28.77;24.33;;;3.70;96.10;;;;;;5085631;28;20204;-73
2021/01/09 10:13:37;;;;;;;29.10;23.47;;;3.70;95.70;;;;;;5085221;28;20184;-73
2021/01/09 10:16:04;;;;;;;31.17;22.77;;;3.80;95.40;;;;;;5082176;28;20205;-74
2021/01/09 10:18:32;;;;;;;28.73;22.10;;;3.80;94.80;;;;;;5074568;28;20184;-72
2021/01/09 10:20:58;;;;;;;25.57;21.00;;;3.80;94.90;;;;;;5087867;28;20200;-73
2021/01/09 10:23:25;;;;;;;25.53;20.93;;;3.70;94.80;;;;;;5079884;28;20263;-72
2021/01/09 10:25:50;;;;;;;21.70;18.13;;;3.90;94.30;;;;;;5085172;28;20203;-72
2021/01/09 10:28:16;;;;;;;26.97;20.17;;;4.00;93.80;;;;;;5076281;28;20239;-71
2021/01/09 10:30:42;;;;;;;24.37;20.13;;;4.30;93.00;;;;;;5082300;28;20714;-73
2021/01/09 10:33:08;;;;;;;27.10;21.60;;;4.40;92.10;;;;;;5081782;28;20181;-72
2021/01/09 10:35:33;;;;;;;27.30;20.87;;;4.60;91.00;;;;;;5083852;28;20212;-73
2021/01/09 10:37:59;;;;;;;22.63;19.33;;;4.80;90.80;;;;;;5084189;28;20182;-73
2021/01/09 10:40:25;;;;;;;30.77;27.48;;;5.00;89.40;;;;;;5082687;28;20947;-76
2021/01/09 10:42:51;;;;;;;23.03;19.93;;;5.10;89.10;;;;;;5083944;28;20183;-73
2021/01/09 10:45:17;;;;;;;22.00;19.27;;;5.20;88.20;;;;;;5079926;28;20202;-74
2021/01/09 10:47:43;;;;;;;24.10;21.30;;;5.30;86.60;;;;;;5086114;28;20243;-73
2021/01/09 10:50:10;;;;;;;24.23;20.83;;;5.50;85.90;;;;;;5087494;28;20210;-73
2021/01/09 10:52:35;;;;;;;22.97;20.47;;;5.50;84.40;;;;;;5084396;28;20203;-73
2021/01/09 10:55:02;;;;;;;25.73;22.53;;;5.70;83.80;;;;;;5088017;28;20698;-74
2021/01/09 10:57:28;;;;;;;27.40;24.50;;;6.10;83.20;;;;;;5079962;28;20258;-73
2021/01/09 10:59:53;;;;;;;25.43;22.73;;;6.40;81.90;;;;;;5079547;28;20265;-74
2021/01/09 11:02:19;;;;;;;26.60;22.27;;;6.70;79.40;;;;;;5084412;28;20181;-73
2021/01/09 11:04:45;;;;;;;24.97;22.33;;;7.20;76.50;;;;;;5085104;28;20225;-73
2021/01/09 11:07:10;;;;;;;24.93;22.23;;;8.40;71.30;;;;;;5079405;28;20214;-73
2021/01/09 11:09:36;;;;;;;22.83;20.50;;;9.00;65.40;;;;;;5082056;28;20329;-73
2021/01/09 11:12:02;;;;;;;22.17;19.97;;;9.60;62.50;;;;;;5079597;28;20238;-74
2021/01/09 11:14:28;;;;;;;22.30;20.10;;;9.40;60.50;;;;;;5083043;28;20182;-73
2021/01/09 11:16:55;;;;;;;22.67;20.33;;;8.90;60.50;;;;;;5075613;28;20201;-74
2021/01/09 11:19:21;;;;;;;23.03;20.47;;;8.50;62.40;;;;;;5080395;28;20273;-76
2021/01/09 11:21:46;;;;;;;22.37;19.97;;;7.90;65.10;;;;;;5083641;28;20273;-73
2021/01/09 11:24:12;;;;;;;21.97;19.13;;;7.60;66.30;;;;;;5082065;28;20194;-73
2021/01/09 11:26:38;;;;;;;21.80;19.43;;;7.30;67.80;;;;;;5078964;28;20206;-73
2021/01/09 11:29:04;;;;;;;23.27;20.33;;;7.30;68.80;;;;;;5079594;28;20197;-75
2021/01/09 11:31:29;;;;;;;21.07;18.80;;;7.60;67.90;;;;;;5074138;28;20226;-74
2021/01/09 11:33:55;;;;;;;21.03;18.90;;;8.00;65.90;;;;;;5080146;28;20281;-73
2021/01/09 11:36:21;;;;;;;20.97;18.50;;;8.20;64.00;;;;;;5079008;28;20229;-73
2021/01/09 11:38:47;;;;;;;22.35;18.60;;;8.60;62.40;;;;;;5083557;28;20182;-73
2021/01/09 11:41:13;;;;;;;20.00;17.90;;;8.80;61.10;;;;;;5079390;28;20426;-75
2021/01/09 11:43:41;;;;;;;18.85;16.95;;;9.10;60.80;;;;;;5079963;28;20201;-73
2021/01/09 11:46:07;;;;;;;26.05;20.50;;;9.70;57.90;;;;;;5077955;28;20213;-73
2021/01/09 11:48:35;;;;;;;23.70;18.45;;;9.50;56.90;;;;;;5077783;28;20186;-71
2021/01/09 11:51:02;;;;;;;26.73;22.30;;;9.30;56.00;;;;;;5079395;28;20206;-72
2021/01/09 11:53:27;;;;;;;17.80;15.90;;;8.60;58.10;;;;;;5079380;28;20186;-72
2021/01/09 11:55:53;;;;;;;18.25;16.35;;;8.00;59.20;;;;;;5079945;28;20946;-73
2021/01/09 11:58:19;;;;;;;38.42;25.80;;;7.60;59.90;;;;;;5073357;28;20179;-73
2021/01/09 12:00:45;;;;;;;23.40;20.90;;;7.00;62.20;;;;;;5078973;28;20190;-74
2021/01/09 12:03:12;;;;;;;22.60;20.33;;;6.70;64.60;;;;;;5078549;28;20509;-73
2021/01/09 12:05:38;;;;;;;18.40;16.50;;;6.30;66.40;;;;;;5085291;28;20301;-74
2021/01/09 12:08:04;;;;;;;18.93;16.93;;;5.90;68.80;;;;;;5081417;28;20186;-72
2021/01/09 12:10:31;;;;;;;20.07;17.97;;;5.70;71.40;;;;;;5077950;28;20218;-73
2021/01/09 12:12:56;;;;;;;20.20;17.73;;;5.60;73.10;;;;;;5083988;28;20238;-72
2021/01/09 12:15:23;;;;;;;22.10;19.80;;;5.40;75.20;;;;;;5094978;28;20420;-74
2021/01/09 12:17:49;;;;;;;23.70;20.17;;;5.10;74.70;;;;;;5099382;28;20194;-71
2021/01/09 12:20:15;;;;;;;22.73;17.70;;;4.80;78.40;;;;;;5101722;28;20232;-71
2021/01/09 12:22:40;;;;;;;22.10;18.97;;;4.80;79.20;;;;;;5082331;28;20214;-72
2021/01/09 12:25:07;;;;;;;28.10;22.10;;;4.70;79.80;;;;;;5078124;28;20611;-72
2021/01/09 12:27:32;;;;;;;30.70;24.37;;;4.70;80.30;;;;;;5071594;28;20195;-71
2021/01/09 12:29:58;;;;;;;22.50;20.10;;;4.60;81.10;;;;;;5083398;28;20276;-71
2021/01/09 12:32:24;;;;;;;20.03;16.33;;;4.60;80.90;;;;;;5078507;28;20255;-71
2021/01/09 12:34:50;;;;;;;17.53;15.00;;;4.50;80.70;;;;;;5080399;28;20195;-70
2021/01/09 12:37:15;;;;;;;17.37;14.53;;;4.60;79.60;;;;;;5080393;28;20184;-71
2021/01/09 12:39:41;;;;;;;17.77;15.00;;;4.70;78.40;;;;;;5077804;28;20968;-71
2021/01/09 12:42:08;;;;;;;19.63;14.90;;;4.80;79.10;;;;;;5082129;28;20197;-72